Time;durP1;ratioP1;P1;durP2;ratioP2;P2;SDS_P1;SDS_P2;PMS_P1;PMS_P2;Temp;Humidity;BMP_temperature;BMP_pressure;BME280_temperature;BME280_humidity;BME280_pressure;Samples;Min_cycle;Max_cycle;Signal;HPM_P1;HPM_P2
2022/06/13 00:03:38;;;;;;;11.30;3.77;;;;;12.50;101606.00;;;;10227219;29;20269;-79
2022/06/13 00:08:40;;;;;;;11.53;3.97;;;;;12.50;101590.00;;;;10195329;29;20249;-80
2022/06/13 00:13:44;;;;;;;9.97;4.17;;;;;12.60;101599.00;;;;10226619;29;20214;-81
2022/06/13 00:18:49;;;;;;;10.13;3.87;;;;;12.60;101592.00;;;;10227012;29;20205;-81
2022/06/13 00:23:52;;;;;;;12.03;4.00;;;;;12.60;101589.00;;;;10226134;29;20541;-80
2022/06/13 00:28:54;;;;;;;11.20;4.63;;;;;12.70;101591.00;;;;10225958;29;20198;-81
2022/06/13 00:33:56;;;;;;;10.53;4.17;;;;;12.70;101589.00;;;;10208176;29;20898;-81
2022/06/13 00:38:58;;;;;;;11.60;3.53;;;;;12.80;101587.00;;;;10210068;29;20193;-81
2022/06/13 00:44:00;;;;;;;10.23;4.97;;;;;12.80;101582.00;;;;10210101;29;20201;-81
2022/06/13 00:49:11;;;;;;;10.83;3.90;;;;;12.90;101584.00;;;;10226156;29;20198;-80
2022/06/13 00:54:15;;;;;;;15.23;4.00;;;;;12.90;101583.00;;;;10207580;29;20214;-80
2022/06/13 00:59:22;;;;;;;9.37;3.90;;;;;13.00;101595.00;;;;10209101;29;20292;-80
2022/06/13 01:04:23;;;;;;;8.50;3.30;;;;;13.00;101593.00;;;;10209381;29;20198;-80
2022/06/13 01:14:58;;;;;;;11.33;3.47;;;;;13.20;101592.00;;;;10168757;29;20642;-80
2022/06/13 01:20:14;;;;;;;9.70;3.87;;;;;13.50;101589.00;;;;10169568;29;20222;-80
2022/06/13 01:25:36;;;;;;;15.13;4.30;;;;;13.70;101594.00;;;;10206604;29;20225;-79
2022/06/13 01:30:50;;;;;;;10.87;3.73;;;;;13.80;101586.00;;;;10223075;29;20198;-80
2022/06/13 01:36:22;;;;;;;7.53;3.90;;;;;13.80;101577.00;;;;10185597;29;20222;-81
2022/06/13 01:41:40;;;;;;;11.90;3.53;;;;;13.60;101583.00;;;;10207956;29;20554;-80
2022/06/13 01:47:17;;;;;;;10.03;4.10;;;;;13.50;101582.00;;;;10207147;29;20207;-79
2022/06/13 01:52:46;;;;;;;10.93;4.50;;;;;13.40;101579.00;;;;10210577;29;20289;-81
2022/06/13 01:57:57;;;;;;;15.87;4.67;;;;;13.40;101591.00;;;;10222649;29;20198;-81
2022/06/13 02:03:13;;;;;;;12.50;4.90;;;;;13.50;101593.00;;;;10220810;29;20304;-80
2022/06/13 02:08:28;;;;;;;9.63;4.40;;;;;13.70;101587.00;;;;10206283;29;20216;-81
2022/06/13 02:13:43;;;;;;;12.50;4.43;;;;;13.70;101583.00;;;;10222563;29;20252;-80
2022/06/13 02:18:59;;;;;;;11.10;4.17;;;;;13.70;101592.00;;;;10220554;29;20190;-81
2022/06/13 02:24:04;;;;;;;10.97;4.20;;;;;13.70;101592.00;;;;10222150;29;20213;-81
2022/06/13 02:29:33;;;;;;;12.53;4.67;;;;;13.80;101592.00;;;;10222595;29;20289;-80
2022/06/13 02:34:41;;;;;;;9.03;4.33;;;;;13.80;101582.00;;;;10216639;29;20760;-79
2022/06/13 02:40:02;;;;;;;12.47;3.97;;;;;13.80;101578.00;;;;10206494;29;20257;-80
2022/06/13 02:45:14;;;;;;;15.03;4.80;;;;;13.80;101582.00;;;;10207240;29;20201;-81
2022/06/13 02:50:29;;;;;;;15.73;4.57;;;;;13.70;101574.00;;;;10207201;28;20274;-81
2022/06/13 02:55:41;;;;;;;13.10;4.83;;;;;13.50;101580.00;;;;10230076;29;20308;-81
2022/06/13 03:01:00;;;;;;;12.57;4.50;;;;;13.50;101576.00;;;;10213307;29;20643;-81
2022/06/13 03:06:24;;;;;;;15.57;4.57;;;;;13.40;101575.00;;;;10213368;28;20225;-79
2022/06/13 03:12:03;;;;;;;11.27;4.43;;;;;13.30;101582.00;;;;10215054;29;20186;-80
2022/06/13 03:17:17;;;;;;;19.10;5.63;;;;;13.40;101583.00;;;;10190174;29;20228;-80
2022/06/13 03:22:25;;;;;;;13.10;4.43;;;;;13.40;101591.00;;;;10204966;29;20226;-80
2022/06/13 03:27:32;;;;;;;15.37;5.70;;;;;13.40;101590.00;;;;10189426;29;20212;-80
2022/06/13 03:32:40;;;;;;;12.60;5.27;;;;;13.30;101599.00;;;;10236357;29;20256;-80
2022/06/13 03:37:46;;;;;;;11.17;4.90;;;;;13.30;101596.00;;;;10211572;29;20613;-79
2022/06/13 03:42:58;;;;;;;11.40;4.70;;;;;13.30;101600.00;;;;10173448;29;20301;-79
2022/06/13 03:48:14;;;;;;;18.97;5.57;;;;;13.30;101613.00;;;;10204037;29;20249;-80
2022/06/13 03:53:23;;;;;;;12.97;5.23;;;;;13.30;101619.00;;;;10207713;29;20193;-80
2022/06/13 03:58:32;;;;;;;15.10;4.83;;;;;13.40;101618.00;;;;10212402;29;20642;-79
2022/06/13 04:03:34;;;;;;;16.57;5.17;;;;;13.60;101618.00;;;;10225073;29;20213;-79
2022/06/13 04:08:38;;;;;;;16.77;5.33;;;;;13.70;101627.00;;;;10170833;29;20236;-81
2022/06/13 04:13:58;;;;;;;15.20;5.20;;;;;13.90;101623.00;;;;10187197;29;20641;-81
2022/06/13 04:19:30;;;;;;;14.07;6.10;;;;;14.00;101626.00;;;;10202956;29;20174;-81
2022/06/13 04:24:55;;;;;;;19.23;5.77;;;;;14.00;101629.00;;;;10197905;29;20239;-80
2022/06/13 04:30:10;;;;;;;15.70;4.90;;;;;14.10;101639.00;;;;10226186;29;20241;-80
2022/06/13 04:35:13;;;;;;;17.80;5.77;;;;;14.10;101647.00;;;;10225560;29;20261;-81
2022/06/13 04:40:25;;;;;;;22.30;6.57;;;;;14.30;101645.00;;;;10207293;29;20679;-81
2022/06/13 04:45:51;;;;;;;21.47;5.47;;;;;14.50;101657.00;;;;10210944;29;20697;-81
2022/06/13 04:50:57;;;;;;;10.80;4.83;;;;;15.00;101655.00;;;;10217084;29;20189;-79
2022/06/13 04:55:59;;;;;;;13.73;4.97;;;;;15.20;101653.00;;;;10222132;29;20204;-81
2022/06/13 05:01:35;;;;;;;14.80;5.20;;;;;15.40;101662.00;;;;10224926;29;20264;-81
2022/06/13 05:06:44;;;;;;;14.97;5.60;;;;;15.40;101672.00;;;;10184932;28;20319;-80
2022/06/13 05:12:17;;;;;;;13.73;5.13;;;;;15.30;101675.00;;;;10202257;29;20294;-81
2022/06/13 05:17:38;;;;;;;16.23;6.20;;;;;16.00;101671.00;;;;10175202;29;20568;-81
2022/06/13 05:23:03;;;;;;;14.80;5.30;;;;;16.70;101686.00;;;;10208879;29;20216;-81
2022/06/13 05:28:05;;;;;;;14.60;5.88;;;;;17.20;101689.00;;;;10224792;29;20185;-80
2022/06/13 05:33:10;;;;;;;19.75;6.05;;;;;17.70;101699.00;;;;10223347;29;20688;-79
2022/06/13 05:38:18;;;;;;;18.13;5.43;;;;;18.00;101697.00;;;;10188056;29;20194;-81
2022/06/13 05:43:20;;;;;;;14.27;5.03;;;;;18.40;101699.00;;;;10169526;29;20673;-79
2022/06/13 05:48:23;;;;;;;14.57;4.50;;;;;18.70;101703.00;;;;10196606;29;20202;-80
2022/06/13 05:53:26;;;;;;;16.02;6.07;;;;;18.70;101697.00;;;;10208228;29;20280;-79
2022/06/13 05:58:28;;;;;;;12.82;4.95;;;;;18.90;101715.00;;;;10239382;29;20193;-79
2022/06/13 06:03:31;;;;;;;14.85;4.70;;;;;19.00;101720.00;;;;10202998;29;20217;-79
2022/06/13 06:08:36;;;;;;;14.02;5.53;;;;;19.20;101723.00;;;;10191147;29;20239;-81
2022/06/13 06:13:38;;;;;;;12.63;5.10;;;;;19.80;101734.00;;;;10191233;29;20284;-80
2022/06/13 06:18:40;;;;;;;15.35;5.03;;;;;19.80;101733.00;;;;10206635;29;20222;-81
2022/06/13 06:23:42;;;;;;;16.35;4.85;;;;;19.10;101749.00;;;;10208315;28;20210;-81
2022/06/13 06:28:51;;;;;;;13.85;4.90;;;;;19.40;101746.00;;;;10231029;29;20735;-80
2022/06/13 06:33:53;;;;;;;10.15;4.70;;;;;19.40;101750.00;;;;10228841;29;20201;-80
2022/06/13 06:38:56;;;;;;;11.73;4.38;;;;;19.40;101759.00;;;;10186823;28;20272;-80
2022/06/13 06:43:58;;;;;;;9.98;4.03;;;;;19.60;101762.00;;;;10206021;29;20237;-81
2022/06/13 06:49:01;;;;;;;15.13;5.10;;;;;20.40;101759.00;;;;10204837;28;20217;-81
2022/06/13 06:59:59;;;;;;;12.02;4.35;;;;;20.70;101765.00;;;;10214422;29;20557;-83
2022/06/13 07:04:55;;;;;;;9.90;3.58;;;;;20.00;101774.00;;;;10224032;29;20240;-82
2022/06/13 07:09:57;;;;;;;9.10;3.08;;;;;19.70;101769.00;;;;10226730;29;20214;-80
2022/06/13 07:14:59;;;;;;;9.98;3.53;;;;;20.50;101777.00;;;;10243340;29;20189;-80
2022/06/13 07:20:02;;;;;;;9.82;3.60;;;;;20.80;101769.00;;;;10228441;28;20205;-81
2022/06/13 07:25:05;;;;;;;9.07;2.75;;;;;21.00;101772.00;;;;10187204;28;20237;-79
2022/06/13 07:30:07;;;;;;;10.65;2.83;;;;;21.50;101776.00;;;;10220550;28;20194;-80
2022/06/13 07:35:12;;;;;;;9.25;2.97;;;;;22.20;101783.00;;;;10238055;28;20185;-80
2022/06/13 07:40:14;;;;;;;5.95;2.40;;;;;22.90;101788.00;;;;10261505;28;20193;-79
2022/06/13 07:45:20;;;;;;;9.63;2.30;;;;;23.30;101808.00;;;;10219302;28;20231;-80
2022/06/13 07:50:42;;;;;;;7.88;2.85;;;;;22.50;101795.00;;;;10190766;28;20560;-79
2022/06/13 07:55:44;;;;;;;6.03;1.92;;;;;23.90;101803.00;;;;10220144;29;20213;-79
2022/06/13 08:00:49;;;;;;;6.28;2.03;;;;;23.50;101812.00;;;;10236941;29;20288;-80
2022/06/13 08:05:52;;;;;;;8.63;2.08;;;;;22.90;101814.00;;;;10242709;29;20225;-80
2022/06/13 08:10:56;;;;;;;3.92;2.05;;;;;21.80;101836.00;;;;10231536;29;20208;-81
2022/06/13 08:15:59;;;;;;;5.20;2.05;;;;;21.20;101834.00;;;;10215546;29;20281;-80
2022/06/13 08:21:01;;;;;;;10.80;2.70;;;;;22.80;101824.00;;;;10257166;29;20221;-78
2022/06/13 08:26:04;;;;;;;6.43;1.67;;;;;24.80;101823.00;;;;10192747;29;20209;-79
2022/06/13 08:31:09;;;;;;;4.20;1.98;;;;;25.20;101832.00;;;;10240376;29;20198;-79
2022/06/13 08:36:12;;;;;;;8.20;2.35;;;;;24.80;101840.00;;;;10203790;29;20206;-80
2022/06/13 08:41:23;;;;;;;6.30;2.03;;;;;24.30;101845.00;;;;10170160;29;20210;-80
2022/06/13 08:46:58;;;;;;;6.65;2.35;;;;;24.30;101831.00;;;;10201618;28;20200;-78
2022/06/13 08:52:17;;;;;;;5.35;2.15;;;;;26.10;101843.00;;;;10224911;28;20173;-80
2022/06/13 08:57:23;;;;;;;7.97;2.50;;;;;26.40;101838.00;;;;10187738;28;20197;-79
2022/06/13 09:02:31;;;;;;;4.15;1.98;;;;;24.50;101837.00;;;;10198190;29;20206;-79
2022/06/13 09:07:43;;;;;;;7.88;2.20;;;;;23.50;101862.00;;;;10225289;29;20688;-78
2022/06/13 09:13:24;;;;;;;6.28;1.70;;;;;22.70;101870.00;;;;10233184;29;20204;-79
2022/06/13 09:18:52;;;;;;;6.05;1.70;;;;;22.00;101871.00;;;;10209144;29;20201;-78
2022/06/13 09:24:02;;;;;;;2.92;1.58;;;;;21.60;101862.00;;;;10183121;29;20270;-80
2022/06/13 09:29:11;;;;;;;8.63;2.20;;;;;24.40;101863.00;;;;10186907;29;20197;-79
2022/06/13 09:34:32;;;;;;;6.38;2.03;;;;;26.50;101864.00;;;;10190302;29;20203;-79
2022/06/13 09:39:34;;;;;;;5.63;1.55;;;;;26.00;101858.00;;;;10249672;28;20197;-76
2022/06/13 09:45:02;;;;;;;4.85;1.45;;;;;24.80;101869.00;;;;10255017;28;20636;-78
2022/06/13 09:50:32;;;;;;;5.40;1.50;;;;;24.30;101882.00;;;;10274020;28;20246;-78
2022/06/13 09:55:47;;;;;;;5.88;1.80;;;;;23.40;101879.00;;;;10226923;29;20205;-78
2022/06/13 10:01:12;;;;;;;2.90;1.25;;;;;22.20;101881.00;;;;10231233;29;20200;-79
2022/06/13 10:06:33;;;;;;;4.80;1.45;;;;;21.80;101890.00;;;;10234674;29;20221;-79
2022/06/13 10:11:48;;;;;;;5.47;1.50;;;;;20.90;101889.00;;;;10213015;28;20197;-79
2022/06/13 10:17:17;;;;;;;2.97;1.73;;;;;23.80;101872.00;;;;10234117;29;20204;-77
2022/06/13 10:22:47;;;;;;;4.03;1.30;;;;;25.40;101886.00;;;;10211662;29;20213;-78
2022/06/13 10:28:06;;;;;;;5.78;1.48;;;;;24.50;101887.00;;;;10231105;29;20191;-78
2022/06/13 10:33:29;;;;;;;3.10;1.77;;;;;24.70;101884.00;;;;10196416;29;20224;-79
2022/06/13 10:38:48;;;;;;;3.60;1.38;;;;;22.70;101902.00;;;;10230529;29;20611;-78
2022/06/13 10:43:51;;;;;;;6.63;1.20;;;;;25.00;101881.00;;;;10248105;29;20206;-78
2022/06/13 10:49:20;;;;;;;2.65;1.20;;;;;26.80;101881.00;;;;10190897;28;20207;-79
2022/06/13 10:54:29;;;;;;;1.77;0.95;;;;;27.40;101873.00;;;;10212080;29;20201;-79
2022/06/13 10:59:33;;;;;;;4.35;1.15;;;;;27.20;101884.00;;;;10199468;29;20197;-78
2022/06/13 11:04:37;;;;;;;2.25;0.90;;;;;27.10;101872.00;;;;10230477;29;20210;-78
2022/06/13 11:09:57;;;;;;;3.13;0.90;;;;;26.90;101880.00;;;;10197100;28;20206;-78
2022/06/13 11:31:31;;;;;;;3.08;1.00;;;;;26.40;101892.00;;;;10195620;29;20321;-79
2022/06/13 11:36:34;;;;;;;3.28;1.05;;;;;27.60;101891.00;;;;10210113;28;20780;-80
2022/06/13 11:41:39;;;;;;;3.72;1.23;;;;;27.70;101909.00;;;;10244634;28;20293;-79
2022/06/13 11:46:53;;;;;;;1.80;1.08;;;;;25.40;101913.00;;;;10240866;28;20597;-79
2022/06/13 11:52:01;;;;;;;3.50;0.98;;;;;25.60;101899.00;;;;10221373;28;20233;-79
2022/06/13 11:57:19;;;;;;;2.58;0.95;;;;;25.80;101912.00;;;;10205774;28;20774;-78
2022/06/13 12:02:27;;;;;;;2.00;1.02;;;;;24.90;101903.00;;;;10238117;29;20205;-78
2022/06/13 12:07:31;;;;;;;3.72;0.82;;;;;25.20;101900.00;;;;10184844;29;20574;-78
2022/06/13 12:12:45;;;;;;;2.25;0.90;;;;;26.50;101890.00;;;;10207121;29;20209;-79
2022/06/13 12:18:00;;;;;;;1.23;0.88;;;;;28.00;101880.00;;;;10194319;28;20193;-77
2022/06/13 12:23:09;;;;;;;3.05;0.80;;;;;25.90;101897.00;;;;10233758;28;20580;-77
2022/06/13 12:28:15;;;;;;;1.77;0.88;;;;;26.50;101886.00;;;;10198272;29;20197;-76
2022/06/13 12:33:43;;;;;;;1.70;0.90;;;;;26.40;101893.00;;;;10199875;29;20194;-77
2022/06/13 12:39:26;;;;;;;1.88;0.90;;;;;24.40;101907.00;;;;10220308;29;20213;-77
2022/06/13 12:44:34;;;;;;;3.42;1.10;;;;;24.60;101890.00;;;;10221600;29;20209;-77
2022/06/13 12:50:15;;;;;;;2.78;1.00;;;;;25.70;101892.00;;;;10192239;29;20293;-77
2022/06/13 12:55:44;;;;;;;6.85;1.60;;;;;26.60;101873.00;;;;10171465;29;20264;-77
2022/06/13 13:01:02;;;;;;;1.10;0.70;;;;;27.10;101887.00;;;;10205268;29;20198;-77
2022/06/13 13:06:31;;;;;;;2.47;1.20;;;;;26.80;101900.00;;;;10219571;28;20220;-77
2022/06/13 13:11:58;;;;;;;3.05;0.80;;;;;26.30;101907.00;;;;10178717;29;20202;-77
2022/06/13 13:17:12;;;;;;;2.17;0.80;;;;;26.90;101895.00;;;;10212706;29;20262;-77
2022/06/13 13:22:41;;;;;;;1.00;0.70;;;;;24.70;101915.00;;;;10204780;28;20229;-76
2022/06/13 13:28:25;;;;;;;2.35;0.82;;;;;25.10;101902.00;;;;10213138;29;20205;-76
2022/06/13 13:33:45;;;;;;;1.90;0.85;;;;;25.90;101899.00;;;;10228208;28;20189;-76
2022/06/13 13:38:52;;;;;;;1.33;0.88;;;;;26.60;101901.00;;;;10255996;28;20192;-76
2022/06/13 13:44:06;;;;;;;3.65;1.00;;;;;24.50;101904.00;;;;10220273;29;20213;-78
2022/06/13 13:49:21;;;;;;;1.83;0.70;;;;;25.20;101898.00;;;;10223989;29;20201;-77
2022/06/13 13:54:28;;;;;;;1.83;0.90;;;;;26.20;101895.00;;;;10212282;29;20197;-79
2022/06/13 13:59:41;;;;;;;3.03;0.98;;;;;26.30;101894.00;;;;10260780;28;20685;-79
2022/06/13 14:04:57;;;;;;;1.77;0.77;;;;;26.10;101888.00;;;;10221900;29;20218;-79
2022/06/13 14:10:00;;;;;;;1.77;0.85;;;;;27.40;101891.00;;;;10187904;29;20228;-81
2022/06/13 14:15:02;;;;;;;2.22;1.13;;;;;29.60;101890.00;;;;10247824;28;20197;-82
2022/06/13 14:20:08;;;;;;;1.70;0.93;;;;;30.30;101886.00;;;;10261723;28;20197;-79
2022/06/13 14:25:13;;;;;;;3.78;1.00;;;;;30.80;101885.00;;;;10204799;29;20241;-80
2022/06/13 14:35:56;;;;;;;2.38;0.95;;;;;33.20;101873.00;;;;10222080;29;20194;-79
2022/06/13 14:41:04;;;;;;;4.15;1.00;;;;;31.90;101888.00;;;;10187131;28;20205;-80
2022/06/13 14:46:23;;;;;;;2.60;0.90;;;;;32.30;101890.00;;;;10218831;28;20259;-79
2022/06/13 14:51:30;;;;;;;7.47;1.27;;;;;32.50;101890.00;;;;10221680;28;20728;-80
2022/06/13 14:56:38;;;;;;;6.82;1.08;;;;;29.30;101882.00;;;;10211672;29;20201;-79
2022/06/13 15:02:05;;;;;;;3.42;1.15;;;;;32.90;101869.00;;;;10242877;29;20646;-80
2022/06/13 15:07:14;;;;;;;4.22;1.42;;;;;32.60;101891.00;;;;10230594;28;20277;-79
2022/06/13 15:12:24;;;;;;;3.63;0.93;;;;;32.30;101884.00;;;;10229977;28;20736;-79
2022/06/13 15:17:29;;;;;;;6.47;1.45;;;;;32.80;101880.00;;;;10239893;28;20268;-79
2022/06/13 15:22:34;;;;;;;5.13;1.08;;;;;33.00;101877.00;;;;10221010;28;20205;-80
2022/06/13 15:27:51;;;;;;;3.28;1.02;;;;;28.30;101881.00;;;;10215442;28;20223;-81
2022/06/13 15:33:20;;;;;;;2.85;1.17;;;;;29.00;101901.00;;;;10235033;28;20753;-80
2022/06/13 15:38:28;;;;;;;1.55;0.90;;;;;25.50;101888.00;;;;10259331;28;20202;-80
2022/06/13 15:43:38;;;;;;;4.70;1.30;;;;;23.50;101900.00;;;;10190382;28;20202;-78
2022/06/13 15:48:43;;;;;;;5.40;1.30;;;;;23.10;101905.00;;;;10259121;28;20185;-77
2022/06/13 15:53:46;;;;;;;5.20;1.38;;;;;21.80;101900.00;;;;10265866;28;20190;-77
2022/06/13 15:58:56;;;;;;;4.53;1.48;;;;;22.10;101891.00;;;;10256541;28;20202;-78
2022/06/13 16:03:58;;;;;;;4.43;1.40;;;;;22.30;101882.00;;;;10222853;29;20210;-77
2022/06/13 16:09:00;;;;;;;4.30;1.40;;;;;21.20;101886.00;;;;10233672;28;20213;-77
2022/06/13 16:14:02;;;;;;;6.45;1.45;;;;;20.60;101886.00;;;;10244200;28;20252;-78
2022/06/13 16:19:40;;;;;;;5.75;1.23;;;;;20.70;101880.00;;;;10250687;28;20191;-77
2022/06/13 16:24:46;;;;;;;4.13;1.27;;;;;20.50;101883.00;;;;10162226;28;20217;-78
2022/06/13 16:29:59;;;;;;;4.88;1.30;;;;;20.00;101892.00;;;;10212165;29;20201;-79
2022/06/13 16:35:01;;;;;;;4.25;1.63;;;;;20.00;101887.00;;;;10250412;28;20276;-79
2022/06/13 16:40:37;;;;;;;1.88;1.17;;;;;20.10;101884.00;;;;10228604;28;20194;-79
2022/06/13 16:45:39;;;;;;;3.65;0.93;;;;;19.70;101890.00;;;;10251515;28;20264;-79
2022/06/13 16:50:41;;;;;;;5.57;1.40;;;;;19.70;101897.00;;;;10222732;29;20232;-78
2022/06/13 16:55:52;;;;;;;6.25;1.52;;;;;19.80;101892.00;;;;10225989;29;20202;-79
2022/06/13 17:01:08;;;;;;;4.05;1.10;;;;;19.80;101892.00;;;;10227011;29;20200;-78
2022/06/13 17:06:44;;;;;;;4.22;1.17;;;;;19.40;101885.00;;;;10223195;28;20787;-78
2022/06/13 17:11:52;;;;;;;2.10;1.10;;;;;19.30;101890.00;;;;10201878;29;20594;-79
2022/06/13 17:16:54;;;;;;;3.20;1.05;;;;;19.30;101881.00;;;;10224097;29;20186;-79
2022/06/13 17:21:56;;;;;;;4.88;1.58;;;;;19.10;101880.00;;;;10238729;28;20194;-78
2022/06/13 17:32:19;;;;;;;4.40;1.60;;;;;19.00;101891.00;;;;10240984;29;20198;-78
2022/06/13 17:37:21;;;;;;;4.60;1.95;;;;;18.90;101886.00;;;;10224885;29;20202;-78
2022/06/13 17:42:24;;;;;;;5.97;2.80;;;;;18.80;101897.00;;;;10210060;29;20217;-78
2022/06/13 17:47:33;;;;;;;6.60;2.42;;;;;18.80;101895.00;;;;10242480;28;20189;-78
2022/06/13 17:52:35;;;;;;;5.47;2.25;;;;;18.60;101895.00;;;;10293237;28;20236;-78
2022/06/13 17:57:38;;;;;;;4.70;2.33;;;;;18.40;101900.00;;;;10226170;29;20264;-78
2022/06/13 18:02:40;;;;;;;4.40;2.38;;;;;18.20;101899.00;;;;10227854;28;20564;-77
2022/06/13 18:07:45;;;;;;;3.28;1.70;;;;;18.10;101903.00;;;;10208050;29;20232;-78
2022/06/13 18:12:48;;;;;;;5.88;1.75;;;;;17.90;101904.00;;;;10227330;29;20204;-78
2022/06/13 18:17:50;;;;;;;4.40;1.85;;;;;17.80;101897.00;;;;10227096;29;20232;-79
2022/06/13 18:22:54;;;;;;;4.10;1.58;;;;;17.70;101897.00;;;;10217215;29;20217;-77
2022/06/13 18:27:56;;;;;;;3.20;1.67;;;;;17.70;101907.00;;;;10218898;29;20673;-79
2022/06/13 18:32:57;;;;;;;5.30;1.67;;;;;17.60;101896.00;;;;10233250;29;20229;-78
2022/06/13 18:38:00;;;;;;;5.75;1.30;;;;;17.50;101907.00;;;;10227115;29;20197;-78
2022/06/13 18:43:04;;;;;;;2.58;1.10;;;;;17.40;101906.00;;;;10231884;29;20229;-77
2022/06/13 18:48:06;;;;;;;5.78;1.00;;;;;17.20;101907.00;;;;10246432;29;20268;-78
2022/06/13 18:53:09;;;;;;;4.30;1.35;;;;;17.10;101902.00;;;;10230306;29;20209;-77
2022/06/13 18:58:11;;;;;;;4.85;1.10;;;;;17.00;101903.00;;;;10242999;28;20197;-78
2022/06/13 19:03:17;;;;;;;3.25;0.90;;;;;16.90;101894.00;;;;10240385;29;20312;-76
2022/06/13 19:08:20;;;;;;;4.05;1.15;;;;;16.80;101894.00;;;;10233471;29;20272;-77
2022/06/13 19:13:25;;;;;;;3.95;1.10;;;;;16.90;101896.00;;;;10248392;28;20189;-77
2022/06/13 19:18:27;;;;;;;5.32;1.90;;;;;16.90;101907.00;;;;10289078;28;20215;-77
2022/06/13 19:23:30;;;;;;;3.75;1.35;;;;;17.00;101909.00;;;;10226124;28;20217;-76
2022/06/13 19:28:38;;;;;;;7.25;1.25;;;;;17.00;101910.00;;;;10243051;28;20201;-76
2022/06/13 19:33:41;;;;;;;7.03;1.35;;;;;16.70;101913.00;;;;10252594;28;20177;-77
2022/06/13 19:38:44;;;;;;;4.45;1.27;;;;;16.30;101913.00;;;;10238235;28;20199;-78
2022/06/13 19:43:50;;;;;;;5.93;1.47;;;;;15.90;101924.00;;;;10207745;29;20205;-77
2022/06/13 19:48:53;;;;;;;4.83;1.27;;;;;15.60;101929.00;;;;10209405;29;20205;-77
2022/06/13 19:53:56;;;;;;;7.23;1.30;;;;;15.30;101932.00;;;;10175945;28;20195;-77
2022/06/13 19:59:01;;;;;;;4.43;1.20;;;;;15.00;101931.00;;;;10199775;29;20598;-77
2022/06/13 20:04:04;;;;;;;5.20;1.23;;;;;14.60;101934.00;;;;10251617;29;20209;-76
2022/06/13 20:09:06;;;;;;;5.30;1.20;;;;;14.40;101942.00;;;;10206570;29;20225;-78
2022/06/13 20:14:09;;;;;;;5.07;1.57;;;;;14.20;101931.00;;;;10204029;29;20187;-76
2022/06/13 20:19:18;;;;;;;5.80;1.77;;;;;14.10;101937.00;;;;10195142;29;20213;-78
2022/06/13 20:24:20;;;;;;;5.17;1.20;;;;;13.90;101942.00;;;;10192173;29;20752;-78
2022/06/13 20:29:24;;;;;;;6.40;1.67;;;;;13.80;101950.00;;;;10223673;29;20196;-78
2022/06/13 20:34:38;;;;;;;4.97;1.60;;;;;13.60;101959.00;;;;10248638;28;20193;-77
2022/06/13 20:39:44;;;;;;;4.20;1.50;;;;;13.50;101956.00;;;;10251230;28;20661;-77
2022/06/13 20:44:50;;;;;;;10.07;2.03;;;;;13.30;101953.00;;;;10222790;29;20233;-78
2022/06/13 20:49:53;;;;;;;5.87;1.17;;;;;13.20;101959.00;;;;10228350;29;20190;-78
2022/06/13 20:54:55;;;;;;;3.63;1.50;;;;;13.10;101948.00;;;;10229293;29;20193;-79
2022/06/13 20:59:57;;;;;;;5.60;1.40;;;;;13.00;101958.00;;;;10228063;29;20197;-79
2022/06/13 21:05:01;;;;;;;2.43;1.13;;;;;13.00;101946.00;;;;10188374;29;20230;-80
2022/06/13 21:10:09;;;;;;;7.73;1.37;;;;;13.00;101947.00;;;;10187815;29;20648;-78
2022/06/13 21:15:16;;;;;;;3.77;1.33;;;;;12.90;101945.00;;;;10190859;29;20205;-79
2022/06/13 21:20:19;;;;;;;3.80;1.20;;;;;12.80;101950.00;;;;10218004;29;20205;-79
2022/06/13 21:25:29;;;;;;;3.07;1.20;;;;;12.60;101951.00;;;;10227383;29;20197;-80
2022/06/13 21:30:36;;;;;;;2.67;1.23;;;;;12.40;101949.00;;;;10205175;28;20204;-80
2022/06/13 21:35:38;;;;;;;3.50;1.50;;;;;12.30;101948.00;;;;10241824;28;20201;-79
2022/06/13 21:40:44;;;;;;;5.03;1.50;;;;;12.20;101943.00;;;;10246365;28;20185;-80
2022/06/13 21:45:47;;;;;;;4.53;1.20;;;;;12.00;101939.00;;;;10225154;29;20248;-79
2022/06/13 21:50:52;;;;;;;7.23;1.57;;;;;11.90;101947.00;;;;10201606;29;20329;-79
2022/06/13 21:56:01;;;;;;;3.67;1.30;;;;;11.80;101937.00;;;;10211609;28;20225;-79
2022/06/13 22:01:06;;;;;;;4.00;1.50;;;;;11.80;101931.00;;;;10205399;28;20193;-79
2022/06/13 22:06:09;;;;;;;6.30;1.60;;;;;11.70;101938.00;;;;10232423;28;20229;-79
2022/06/13 22:11:11;;;;;;;6.10;2.33;;;;;11.60;101945.00;;;;10219726;28;20189;-80
2022/06/13 22:16:13;;;;;;;4.00;1.23;;;;;11.40;101928.00;;;;10257419;28;20190;-78
2022/06/13 22:21:16;;;;;;;4.50;1.60;;;;;11.40;101933.00;;;;10229884;28;20198;-79
2022/06/13 22:26:18;;;;;;;3.43;1.30;;;;;11.40;101925.00;;;;10233197;28;20209;-79
2022/06/13 22:31:20;;;;;;;3.37;1.30;;;;;11.30;101935.00;;;;10240261;28;20206;-81
2022/06/13 22:36:22;;;;;;;5.23;1.40;;;;;11.10;101938.00;;;;10261486;28;20712;-79
2022/06/13 22:41:24;;;;;;;4.00;1.70;;;;;11.00;101933.00;;;;10199902;29;20241;-80
2022/06/13 22:51:47;;;;;;;4.80;1.47;;;;;10.90;101934.00;;;;10246412;29;20200;-80
2022/06/13 22:56:49;;;;;;;7.00;2.20;;;;;10.80;101934.00;;;;10232014;29;20264;-80
2022/06/13 23:01:51;;;;;;;3.50;1.47;;;;;10.70;101928.00;;;;10229934;29;20572;-80
2022/06/13 23:06:53;;;;;;;4.07;2.03;;;;;10.70;101941.00;;;;10230800;28;20528;-79
2022/06/13 23:11:58;;;;;;;3.33;1.50;;;;;10.60;101932.00;;;;10231724;29;20186;-79
2022/06/13 23:17:00;;;;;;;5.27;1.80;;;;;10.50;101933.00;;;;10230275;29;20661;-80
2022/06/13 23:22:03;;;;;;;7.43;1.83;;;;;10.40;101932.00;;;;10230180;29;20189;-79
2022/06/13 23:27:05;;;;;;;5.53;1.97;;;;;10.40;101939.00;;;;10229694;29;20218;-80
2022/06/13 23:32:07;;;;;;;2.70;2.13;;;;;10.30;101940.00;;;;10214041;29;20232;-80
2022/06/13 23:37:10;;;;;;;3.87;1.60;;;;;10.20;101938.00;;;;10175150;29;20194;-81
2022/06/13 23:42:12;;;;;;;3.83;1.70;;;;;10.10;101935.00;;;;10190836;29;20308;-80
2022/06/13 23:47:15;;;;;;;4.33;1.80;;;;;10.10;101939.00;;;;10204680;29;20202;-79
2022/06/13 23:52:17;;;;;;;3.90;1.60;;;;;10.00;101930.00;;;;10207183;29;20206;-80
2022/06/13 23:57:19;;;;;;;4.53;1.90;;;;;10.00;101924.00;;;;10206104;29;20207;-79
